sensor_id;sensor_type;location;lat;lon;timestamp;P1;durP1;ratioP1;P2;durP2;ratioP2
43504;SDS011;29098;48.184;16.298;2022-07-06T00:01:39;5.78;;;4.47;;
43504;SDS011;29098;48.184;16.298;2022-07-06T00:04:05;9.82;;;6.32;;
43504;SDS011;29098;48.184;16.298;2022-07-06T00:06:30;8.55;;;4.30;;
43504;SDS011;29098;48.184;16.298;2022-07-06T00:08:56;6.85;;;5.03;;
43504;SDS011;29098;48.184;16.298;2022-07-06T00:11:22;6.05;;;4.65;;
43504;SDS011;29098;48.184;16.298;2022-07-06T00:13:48;6.45;;;4.82;;
43504;SDS011;29098;48.184;16.298;2022-07-06T00:16:13;7.20;;;4.53;;
43504;SDS011;29098;48.184;16.298;2022-07-06T00:18:39;10.02;;;6.63;;
43504;SDS011;29098;48.184;16.298;2022-07-06T00:21:04;7.45;;;5.03;;
43504;SDS011;29098;48.184;16.298;2022-07-06T00:23:30;6.25;;;4.88;;
43504;SDS011;29098;48.184;16.298;2022-07-06T00:25:55;7.95;;;5.28;;
43504;SDS011;29098;48.184;16.298;2022-07-06T00:28:21;9.82;;;6.97;;
43504;SDS011;29098;48.184;16.298;2022-07-06T00:30:46;8.35;;;5.82;;
43504;SDS011;29098;48.184;16.298;2022-07-06T00:33:12;7.13;;;4.53;;
43504;SDS011;29098;48.184;16.298;2022-07-06T00:35:37;6.75;;;5.35;;
43504;SDS011;29098;48.184;16.298;2022-07-06T00:38:02;9.50;;;7.25;;
43504;SDS011;29098;48.184;16.298;2022-07-06T00:40:28;25.02;;;12.02;;
43504;SDS011;29098;48.184;16.298;2022-07-06T00:42:55;11.05;;;6.13;;
43504;SDS011;29098;48.184;16.298;2022-07-06T00:45:20;7.55;;;5.63;;
43504;SDS011;29098;48.184;16.298;2022-07-06T00:47:46;6.65;;;5.53;;
43504;SDS011;29098;48.184;16.298;2022-07-06T00:50:12;14.23;;;8.50;;
43504;SDS011;29098;48.184;16.298;2022-07-06T00:52:43;8.43;;;6.00;;
43504;SDS011;29098;48.184;16.298;2022-07-06T00:55:12;9.63;;;7.45;;
43504;SDS011;29098;48.184;16.298;2022-07-06T00:57:38;8.65;;;6.32;;
43504;SDS011;29098;48.184;16.298;2022-07-06T01:00:06;9.93;;;5.85;;
43504;SDS011;29098;48.184;16.298;2022-07-06T01:02:34;8.93;;;6.45;;
43504;SDS011;29098;48.184;16.298;2022-07-06T01:05:01;8.68;;;5.88;;
43504;SDS011;29098;48.184;16.298;2022-07-06T01:07:28;8.05;;;6.72;;
43504;SDS011;29098;48.184;16.298;2022-07-06T01:09:54;9.88;;;6.53;;
43504;SDS011;29098;48.184;16.298;2022-07-06T01:12:20;7.32;;;6.32;;
43504;SDS011;29098;48.184;16.298;2022-07-06T01:14:46;8.52;;;6.18;;
43504;SDS011;29098;48.184;16.298;2022-07-06T01:17:13;7.35;;;6.57;;
43504;SDS011;29098;48.184;16.298;2022-07-06T01:19:40;7.57;;;6.78;;
43504;SDS011;29098;48.184;16.298;2022-07-06T01:22:05;7.88;;;7.07;;
43504;SDS011;29098;48.184;16.298;2022-07-06T01:24:31;9.23;;;6.40;;
43504;SDS011;29098;48.184;16.298;2022-07-06T01:26:56;7.82;;;6.68;;
43504;SDS011;29098;48.184;16.298;2022-07-06T01:29:22;9.05;;;7.10;;
43504;SDS011;29098;48.184;16.298;2022-07-06T01:31:48;8.30;;;6.82;;
43504;SDS011;29098;48.184;16.298;2022-07-06T01:34:18;14.80;;;7.55;;
43504;SDS011;29098;48.184;16.298;2022-07-06T01:36:44;10.88;;;8.27;;
43504;SDS011;29098;48.184;16.298;2022-07-06T01:39:10;7.45;;;6.70;;
43504;SDS011;29098;48.184;16.298;2022-07-06T01:41:36;8.63;;;7.15;;
43504;SDS011;29098;48.184;16.298;2022-07-06T01:44:03;8.85;;;7.05;;
43504;SDS011;29098;48.184;16.298;2022-07-06T01:46:29;8.50;;;7.28;;
43504;SDS011;29098;48.184;16.298;2022-07-06T01:48:55;9.23;;;7.43;;
43504;SDS011;29098;48.184;16.298;2022-07-06T01:51:21;8.38;;;7.00;;
43504;SDS011;29098;48.184;16.298;2022-07-06T01:53:46;7.80;;;7.00;;
43504;SDS011;29098;48.184;16.298;2022-07-06T01:56:12;8.52;;;7.22;;
43504;SDS011;29098;48.184;16.298;2022-07-06T01:58:38;9.13;;;7.63;;
43504;SDS011;29098;48.184;16.298;2022-07-06T02:01:11;7.85;;;7.05;;
43504;SDS011;29098;48.184;16.298;2022-07-06T02:03:41;10.10;;;7.88;;
43504;SDS011;29098;48.184;16.298;2022-07-06T02:06:07;10.02;;;7.18;;
43504;SDS011;29098;48.184;16.298;2022-07-06T02:08:34;11.55;;;6.78;;
43504;SDS011;29098;48.184;16.298;2022-07-06T02:11:02;9.10;;;7.05;;
43504;SDS011;29098;48.184;16.298;2022-07-06T02:13:28;8.48;;;7.38;;
43504;SDS011;29098;48.184;16.298;2022-07-06T02:15:54;10.32;;;7.03;;
43504;SDS011;29098;48.184;16.298;2022-07-06T02:18:19;7.78;;;6.70;;
43504;SDS011;29098;48.184;16.298;2022-07-06T02:20:45;8.43;;;7.10;;
43504;SDS011;29098;48.184;16.298;2022-07-06T02:23:10;7.65;;;6.85;;
43504;SDS011;29098;48.184;16.298;2022-07-06T02:25:36;8.73;;;6.78;;
43504;SDS011;29098;48.184;16.298;2022-07-06T02:28:01;8.25;;;7.00;;
43504;SDS011;29098;48.184;16.298;2022-07-06T02:30:27;9.95;;;7.30;;
43504;SDS011;29098;48.184;16.298;2022-07-06T02:32:52;8.75;;;7.35;;
43504;SDS011;29098;48.184;16.298;2022-07-06T02:35:18;7.93;;;6.78;;
43504;SDS011;29098;48.184;16.298;2022-07-06T02:37:43;7.85;;;6.22;;
43504;SDS011;29098;48.184;16.298;2022-07-06T02:40:09;6.95;;;6.25;;
43504;SDS011;29098;48.184;16.298;2022-07-06T02:42:34;11.82;;;7.50;;
43504;SDS011;29098;48.184;16.298;2022-07-06T02:45:00;7.35;;;6.28;;
43504;SDS011;29098;48.184;16.298;2022-07-06T02:47:26;7.15;;;6.18;;
43504;SDS011;29098;48.184;16.298;2022-07-06T02:49:51;10.05;;;7.28;;
43504;SDS011;29098;48.184;16.298;2022-07-06T02:52:17;9.25;;;6.93;;
43504;SDS011;29098;48.184;16.298;2022-07-06T02:54:43;8.30;;;7.15;;
43504;SDS011;29098;48.184;16.298;2022-07-06T02:57:08;9.85;;;6.63;;
43504;SDS011;29098;48.184;16.298;2022-07-06T02:59:34;7.53;;;6.72;;
43504;SDS011;29098;48.184;16.298;2022-07-06T03:01:59;8.98;;;7.10;;
43504;SDS011;29098;48.184;16.298;2022-07-06T03:04:25;9.82;;;7.85;;
43504;SDS011;29098;48.184;16.298;2022-07-06T03:06:50;7.05;;;6.32;;
43504;SDS011;29098;48.184;16.298;2022-07-06T03:09:15;9.25;;;6.75;;
43504;SDS011;29098;48.184;16.298;2022-07-06T03:11:41;7.18;;;6.50;;
43504;SDS011;29098;48.184;16.298;2022-07-06T03:14:06;8.77;;;6.53;;
43504;SDS011;29098;48.184;16.298;2022-07-06T03:16:32;9.50;;;6.68;;
43504;SDS011;29098;48.184;16.298;2022-07-06T03:18:57;8.00;;;6.60;;
43504;SDS011;29098;48.184;16.298;2022-07-06T03:21:23;10.95;;;6.20;;
43504;SDS011;29098;48.184;16.298;2022-07-06T03:23:49;9.90;;;6.78;;
43504;SDS011;29098;48.184;16.298;2022-07-06T03:26:14;8.20;;;6.18;;
43504;SDS011;29098;48.184;16.298;2022-07-06T03:28:40;7.00;;;6.00;;
43504;SDS011;29098;48.184;16.298;2022-07-06T03:31:06;7.80;;;6.63;;
43504;SDS011;29098;48.184;16.298;2022-07-06T03:33:31;8.13;;;7.32;;
43504;SDS011;29098;48.184;16.298;2022-07-06T03:35:56;8.13;;;6.55;;
43504;SDS011;29098;48.184;16.298;2022-07-06T03:38:22;7.95;;;6.53;;
43504;SDS011;29098;48.184;16.298;2022-07-06T03:40:47;13.95;;;7.95;;
43504;SDS011;29098;48.184;16.298;2022-07-06T03:43:13;8.32;;;6.65;;
43504;SDS011;29098;48.184;16.298;2022-07-06T03:45:38;8.57;;;6.72;;
43504;SDS011;29098;48.184;16.298;2022-07-06T03:48:04;8.20;;;6.43;;
43504;SDS011;29098;48.184;16.298;2022-07-06T03:50:30;8.80;;;6.45;;
43504;SDS011;29098;48.184;16.298;2022-07-06T03:52:55;8.98;;;5.85;;
43504;SDS011;29098;48.184;16.298;2022-07-06T03:55:21;8.00;;;7.07;;
43504;SDS011;29098;48.184;16.298;2022-07-06T03:57:46;6.97;;;6.25;;
43504;SDS011;29098;48.184;16.298;2022-07-06T04:00:12;7.25;;;6.38;;
43504;SDS011;29098;48.184;16.298;2022-07-06T04:02:37;9.13;;;5.45;;
43504;SDS011;29098;48.184;16.298;2022-07-06T04:05:03;7.20;;;6.10;;
43504;SDS011;29098;48.184;16.298;2022-07-06T04:07:29;6.57;;;5.88;;
43504;SDS011;29098;48.184;16.298;2022-07-06T04:09:55;7.95;;;5.55;;
43504;SDS011;29098;48.184;16.298;2022-07-06T04:12:21;8.73;;;6.65;;
43504;SDS011;29098;48.184;16.298;2022-07-06T04:14:46;7.95;;;5.85;;
43504;SDS011;29098;48.184;16.298;2022-07-06T04:17:11;6.93;;;5.38;;
43504;SDS011;29098;48.184;16.298;2022-07-06T04:19:55;9.75;;;6.22;;
43504;SDS011;29098;48.184;16.298;2022-07-06T04:22:21;6.63;;;5.40;;
43504;SDS011;29098;48.184;16.298;2022-07-06T04:24:46;9.43;;;5.47;;
43504;SDS011;29098;48.184;16.298;2022-07-06T04:27:11;7.63;;;6.22;;
43504;SDS011;29098;48.184;16.298;2022-07-06T04:29:37;6.85;;;5.68;;
43504;SDS011;29098;48.184;16.298;2022-07-06T04:32:02;8.18;;;5.38;;
43504;SDS011;29098;48.184;16.298;2022-07-06T04:34:28;9.73;;;5.95;;
43504;SDS011;29098;48.184;16.298;2022-07-06T04:36:54;6.35;;;5.53;;
43504;SDS011;29098;48.184;16.298;2022-07-06T04:39:19;6.65;;;5.57;;
43504;SDS011;29098;48.184;16.298;2022-07-06T04:41:45;6.47;;;5.28;;
43504;SDS011;29098;48.184;16.298;2022-07-06T04:44:10;10.10;;;5.22;;
43504;SDS011;29098;48.184;16.298;2022-07-06T04:46:35;6.38;;;5.10;;
43504;SDS011;29098;48.184;16.298;2022-07-06T04:49:01;6.38;;;4.80;;
43504;SDS011;29098;48.184;16.298;2022-07-06T04:51:26;5.35;;;4.32;;
43504;SDS011;29098;48.184;16.298;2022-07-06T04:53:52;6.10;;;4.35;;
43504;SDS011;29098;48.184;16.298;2022-07-06T04:56:17;5.38;;;4.35;;
43504;SDS011;29098;48.184;16.298;2022-07-06T04:58:43;4.70;;;4.03;;
43504;SDS011;29098;48.184;16.298;2022-07-06T05:01:08;8.27;;;4.65;;
43504;SDS011;29098;48.184;16.298;2022-07-06T05:03:34;5.65;;;4.93;;
43504;SDS011;29098;48.184;16.298;2022-07-06T05:06:05;7.57;;;5.00;;
43504;SDS011;29098;48.184;16.298;2022-07-06T05:08:32;5.03;;;4.35;;
43504;SDS011;29098;48.184;16.298;2022-07-06T05:10:58;7.57;;;4.90;;
43504;SDS011;29098;48.184;16.298;2022-07-06T05:13:24;7.85;;;4.30;;
43504;SDS011;29098;48.184;16.298;2022-07-06T05:15:50;6.25;;;4.65;;
43504;SDS011;29098;48.184;16.298;2022-07-06T05:18:15;7.78;;;4.38;;
43504;SDS011;29098;48.184;16.298;2022-07-06T05:20:41;7.85;;;5.35;;
43504;SDS011;29098;48.184;16.298;2022-07-06T05:23:06;6.43;;;4.20;;
43504;SDS011;29098;48.184;16.298;2022-07-06T05:25:32;6.45;;;4.35;;
43504;SDS011;29098;48.184;16.298;2022-07-06T05:27:58;7.50;;;5.20;;
43504;SDS011;29098;48.184;16.298;2022-07-06T05:30:23;6.20;;;4.65;;
43504;SDS011;29098;48.184;16.298;2022-07-06T05:32:49;4.90;;;4.13;;
43504;SDS011;29098;48.184;16.298;2022-07-06T05:35:15;5.75;;;4.32;;
43504;SDS011;29098;48.184;16.298;2022-07-06T05:37:41;5.43;;;4.13;;
43504;SDS011;29098;48.184;16.298;2022-07-06T05:40:07;6.22;;;4.07;;
43504;SDS011;29098;48.184;16.298;2022-07-06T05:42:33;4.78;;;4.28;;
43504;SDS011;29098;48.184;16.298;2022-07-06T05:44:58;6.47;;;4.45;;
43504;SDS011;29098;48.184;16.298;2022-07-06T05:47:23;6.15;;;4.35;;
43504;SDS011;29098;48.184;16.298;2022-07-06T05:50:08;6.63;;;4.15;;
43504;SDS011;29098;48.184;16.298;2022-07-06T05:52:43;5.25;;;4.07;;
43504;SDS011;29098;48.184;16.298;2022-07-06T05:55:10;9.50;;;4.38;;
43504;SDS011;29098;48.184;16.298;2022-07-06T05:57:36;5.15;;;4.35;;
43504;SDS011;29098;48.184;16.298;2022-07-06T06:00:03;5.88;;;4.72;;
43504;SDS011;29098;48.184;16.298;2022-07-06T06:02:39;5.60;;;3.80;;
43504;SDS011;29098;48.184;16.298;2022-07-06T06:05:06;6.70;;;4.47;;
43504;SDS011;29098;48.184;16.298;2022-07-06T06:07:37;4.55;;;3.83;;
43504;SDS011;29098;48.184;16.298;2022-07-06T06:10:03;5.88;;;4.13;;
43504;SDS011;29098;48.184;16.298;2022-07-06T06:12:30;5.70;;;4.00;;
43504;SDS011;29098;48.184;16.298;2022-07-06T06:14:56;7.72;;;4.47;;
43504;SDS011;29098;48.184;16.298;2022-07-06T06:17:21;5.63;;;3.70;;
43504;SDS011;29098;48.184;16.298;2022-07-06T06:19:46;4.40;;;3.60;;
43504;SDS011;29098;48.184;16.298;2022-07-06T06:22:12;8.07;;;3.80;;
43504;SDS011;29098;48.184;16.298;2022-07-06T06:24:38;5.53;;;3.97;;
43504;SDS011;29098;48.184;16.298;2022-07-06T06:27:04;6.38;;;3.90;;
43504;SDS011;29098;48.184;16.298;2022-07-06T06:29:29;6.03;;;4.10;;
43504;SDS011;29098;48.184;16.298;2022-07-06T06:31:55;8.20;;;3.85;;
43504;SDS011;29098;48.184;16.298;2022-07-06T06:34:20;6.25;;;3.92;;
43504;SDS011;29098;48.184;16.298;2022-07-06T06:36:46;10.65;;;4.25;;
43504;SDS011;29098;48.184;16.298;2022-07-06T06:39:11;5.63;;;3.70;;
43504;SDS011;29098;48.184;16.298;2022-07-06T06:41:36;5.13;;;3.85;;
43504;SDS011;29098;48.184;16.298;2022-07-06T06:44:02;5.13;;;3.67;;
43504;SDS011;29098;48.184;16.298;2022-07-06T06:46:27;5.68;;;3.53;;
43504;SDS011;29098;48.184;16.298;2022-07-06T06:48:53;4.50;;;3.28;;
43504;SDS011;29098;48.184;16.298;2022-07-06T06:51:18;6.25;;;3.70;;
43504;SDS011;29098;48.184;16.298;2022-07-06T06:53:44;4.82;;;3.92;;
43504;SDS011;29098;48.184;16.298;2022-07-06T06:56:09;10.65;;;3.90;;
43504;SDS011;29098;48.184;16.298;2022-07-06T06:58:34;5.10;;;3.15;;
43504;SDS011;29098;48.184;16.298;2022-07-06T07:01:00;6.72;;;4.03;;
43504;SDS011;29098;48.184;16.298;2022-07-06T07:03:25;4.18;;;3.53;;
43504;SDS011;29098;48.184;16.298;2022-07-06T07:05:50;5.90;;;4.30;;
43504;SDS011;29098;48.184;16.298;2022-07-06T07:08:16;5.35;;;3.72;;
43504;SDS011;29098;48.184;16.298;2022-07-06T07:10:41;5.78;;;4.28;;
43504;SDS011;29098;48.184;16.298;2022-07-06T07:13:07;6.90;;;3.55;;
43504;SDS011;29098;48.184;16.298;2022-07-06T07:15:32;6.22;;;3.47;;
43504;SDS011;29098;48.184;16.298;2022-07-06T07:17:58;6.00;;;3.53;;
43504;SDS011;29098;48.184;16.298;2022-07-06T07:20:23;7.40;;;3.83;;
43504;SDS011;29098;48.184;16.298;2022-07-06T07:22:50;5.93;;;3.38;;
43504;SDS011;29098;48.184;16.298;2022-07-06T07:25:16;5.93;;;3.88;;
43504;SDS011;29098;48.184;16.298;2022-07-06T07:27:41;4.70;;;3.90;;
43504;SDS011;29098;48.184;16.298;2022-07-06T07:30:07;4.30;;;3.05;;
43504;SDS011;29098;48.184;16.298;2022-07-06T07:32:33;5.03;;;4.38;;
43504;SDS011;29098;48.184;16.298;2022-07-06T07:34:58;3.97;;;3.17;;
43504;SDS011;29098;48.184;16.298;2022-07-06T07:37:23;3.85;;;3.13;;
43504;SDS011;29098;48.184;16.298;2022-07-06T07:39:49;6.53;;;3.78;;
43504;SDS011;29098;48.184;16.298;2022-07-06T07:42:14;5.30;;;3.10;;
43504;SDS011;29098;48.184;16.298;2022-07-06T07:44:40;5.40;;;3.45;;
43504;SDS011;29098;48.184;16.298;2022-07-06T07:47:06;4.97;;;3.47;;
43504;SDS011;29098;48.184;16.298;2022-07-06T07:49:31;4.18;;;3.05;;
43504;SDS011;29098;48.184;16.298;2022-07-06T07:51:57;4.55;;;3.08;;
43504;SDS011;29098;48.184;16.298;2022-07-06T07:54:22;3.70;;;2.70;;
43504;SDS011;29098;48.184;16.298;2022-07-06T07:56:48;5.38;;;3.10;;
43504;SDS011;29098;48.184;16.298;2022-07-06T07:59:13;4.88;;;3.40;;
43504;SDS011;29098;48.184;16.298;2022-07-06T08:01:39;5.78;;;3.55;;
43504;SDS011;29098;48.184;16.298;2022-07-06T08:04:04;4.28;;;3.10;;
43504;SDS011;29098;48.184;16.298;2022-07-06T08:06:31;3.92;;;3.13;;
43504;SDS011;29098;48.184;16.298;2022-07-06T08:08:57;4.22;;;3.10;;
43504;SDS011;29098;48.184;16.298;2022-07-06T08:11:22;6.43;;;3.17;;
43504;SDS011;29098;48.184;16.298;2022-07-06T08:13:47;5.97;;;3.00;;
43504;SDS011;29098;48.184;16.298;2022-07-06T08:16:13;4.63;;;3.65;;
43504;SDS011;29098;48.184;16.298;2022-07-06T08:18:38;3.20;;;2.47;;
43504;SDS011;29098;48.184;16.298;2022-07-06T08:21:04;6.47;;;3.72;;
43504;SDS011;29098;48.184;16.298;2022-07-06T08:23:30;4.43;;;2.50;;
43504;SDS011;29098;48.184;16.298;2022-07-06T08:25:56;5.45;;;3.03;;
43504;SDS011;29098;48.184;16.298;2022-07-06T08:28:21;3.53;;;2.90;;
43504;SDS011;29098;48.184;16.298;2022-07-06T08:30:47;4.88;;;2.63;;
43504;SDS011;29098;48.184;16.298;2022-07-06T08:33:13;3.85;;;2.88;;
43504;SDS011;29098;48.184;16.298;2022-07-06T08:35:38;3.70;;;2.47;;
43504;SDS011;29098;48.184;16.298;2022-07-06T08:38:04;4.15;;;2.95;;
43504;SDS011;29098;48.184;16.298;2022-07-06T08:40:31;4.47;;;3.20;;
43504;SDS011;29098;48.184;16.298;2022-07-06T08:42:59;3.60;;;2.60;;
43504;SDS011;29098;48.184;16.298;2022-07-06T08:45:25;3.83;;;2.55;;
43504;SDS011;29098;48.184;16.298;2022-07-06T08:47:52;4.35;;;2.60;;
43504;SDS011;29098;48.184;16.298;2022-07-06T08:50:19;4.15;;;2.38;;
43504;SDS011;29098;48.184;16.298;2022-07-06T08:52:47;3.20;;;2.40;;
43504;SDS011;29098;48.184;16.298;2022-07-06T08:55:13;5.68;;;2.83;;
43504;SDS011;29098;48.184;16.298;2022-07-06T08:57:39;4.30;;;2.55;;
43504;SDS011;29098;48.184;16.298;2022-07-06T09:00:08;5.18;;;2.60;;
43504;SDS011;29098;48.184;16.298;2022-07-06T09:02:34;3.90;;;2.55;;
43504;SDS011;29098;48.184;16.298;2022-07-06T09:05:02;4.65;;;3.17;;
43504;SDS011;29098;48.184;16.298;2022-07-06T09:07:28;4.07;;;2.80;;
43504;SDS011;29098;48.184;16.298;2022-07-06T09:09:54;4.97;;;2.80;;
43504;SDS011;29098;48.184;16.298;2022-07-06T09:12:21;5.18;;;2.83;;
43504;SDS011;29098;48.184;16.298;2022-07-06T09:14:47;4.18;;;2.92;;
43504;SDS011;29098;48.184;16.298;2022-07-06T09:17:12;4.15;;;2.88;;
43504;SDS011;29098;48.184;16.298;2022-07-06T09:19:38;4.53;;;2.83;;
43504;SDS011;29098;48.184;16.298;2022-07-06T09:22:04;4.78;;;2.70;;
43504;SDS011;29098;48.184;16.298;2022-07-06T09:24:30;4.07;;;2.85;;
43504;SDS011;29098;48.184;16.298;2022-07-06T09:26:57;5.22;;;3.22;;
43504;SDS011;29098;48.184;16.298;2022-07-06T09:29:41;3.08;;;2.33;;
43504;SDS011;29098;48.184;16.298;2022-07-06T09:32:07;5.82;;;2.92;;
43504;SDS011;29098;48.184;16.298;2022-07-06T09:34:50;4.13;;;2.53;;
43504;SDS011;29098;48.184;16.298;2022-07-06T09:37:16;5.43;;;3.00;;
43504;SDS011;29098;48.184;16.298;2022-07-06T09:39:42;3.38;;;2.63;;
43504;SDS011;29098;48.184;16.298;2022-07-06T09:42:09;6.20;;;3.00;;
43504;SDS011;29098;48.184;16.298;2022-07-06T09:44:35;6.53;;;3.10;;
43504;SDS011;29098;48.184;16.298;2022-07-06T09:47:03;4.20;;;3.28;;
43504;SDS011;29098;48.184;16.298;2022-07-06T09:49:31;4.28;;;2.78;;
43504;SDS011;29098;48.184;16.298;2022-07-06T09:51:58;4.53;;;2.53;;
43504;SDS011;29098;48.184;16.298;2022-07-06T09:54:25;5.50;;;2.63;;
43504;SDS011;29098;48.184;16.298;2022-07-06T09:56:50;5.70;;;2.55;;
43504;SDS011;29098;48.184;16.298;2022-07-06T09:59:23;5.10;;;3.15;;
43504;SDS011;29098;48.184;16.298;2022-07-06T10:01:55;7.45;;;3.00;;
43504;SDS011;29098;48.184;16.298;2022-07-06T10:04:22;4.60;;;2.85;;
43504;SDS011;29098;48.184;16.298;2022-07-06T10:06:50;4.75;;;2.97;;
43504;SDS011;29098;48.184;16.298;2022-07-06T10:09:16;3.60;;;2.90;;
43504;SDS011;29098;48.184;16.298;2022-07-06T10:11:45;4.68;;;2.75;;
43504;SDS011;29098;48.184;16.298;2022-07-06T10:14:12;4.20;;;3.15;;
43504;SDS011;29098;48.184;16.298;2022-07-06T10:16:42;3.85;;;2.90;;
43504;SDS011;29098;48.184;16.298;2022-07-06T10:19:09;5.55;;;2.72;;
43504;SDS011;29098;48.184;16.298;2022-07-06T10:21:38;5.25;;;2.78;;
43504;SDS011;29098;48.184;16.298;2022-07-06T10:24:05;4.13;;;2.58;;
43504;SDS011;29098;48.184;16.298;2022-07-06T10:26:35;3.75;;;2.58;;
43504;SDS011;29098;48.184;16.298;2022-07-06T10:29:02;4.55;;;2.97;;
43504;SDS011;29098;48.184;16.298;2022-07-06T10:31:28;5.13;;;2.50;;
43504;SDS011;29098;48.184;16.298;2022-07-06T10:33:59;5.78;;;2.92;;
43504;SDS011;29098;48.184;16.298;2022-07-06T10:36:26;3.60;;;2.50;;
43504;SDS011;29098;48.184;16.298;2022-07-06T10:38:53;4.55;;;2.40;;
43504;SDS011;29098;48.184;16.298;2022-07-06T10:41:29;8.30;;;2.90;;
43504;SDS011;29098;48.184;16.298;2022-07-06T10:43:56;4.38;;;3.20;;
43504;SDS011;29098;48.184;16.298;2022-07-06T10:46:23;4.63;;;3.20;;
43504;SDS011;29098;48.184;16.298;2022-07-06T10:48:53;3.90;;;2.60;;
43504;SDS011;29098;48.184;16.298;2022-07-06T10:51:25;4.05;;;2.55;;
43504;SDS011;29098;48.184;16.298;2022-07-06T10:53:59;3.67;;;1.90;;
43504;SDS011;29098;48.184;16.298;2022-07-06T10:56:36;5.05;;;1.90;;
43504;SDS011;29098;48.184;16.298;2022-07-06T10:59:08;3.30;;;2.05;;
43504;SDS011;29098;48.184;16.298;2022-07-06T11:01:35;3.50;;;2.20;;
43504;SDS011;29098;48.184;16.298;2022-07-06T11:06:27;3.55;;;1.95;;
43504;SDS011;29098;48.184;16.298;2022-07-06T11:08:57;6.18;;;2.08;;
43504;SDS011;29098;48.184;16.298;2022-07-06T11:11:36;4.50;;;2.45;;
43504;SDS011;29098;48.184;16.298;2022-07-06T11:14:09;3.17;;;1.98;;
43504;SDS011;29098;48.184;16.298;2022-07-06T11:16:37;3.95;;;2.33;;
43504;SDS011;29098;48.184;16.298;2022-07-06T11:19:04;3.00;;;1.92;;
43504;SDS011;29098;48.184;16.298;2022-07-06T11:21:36;3.70;;;2.10;;
43504;SDS011;29098;48.184;16.298;2022-07-06T11:24:03;5.53;;;1.88;;
43504;SDS011;29098;48.184;16.298;2022-07-06T11:26:37;3.97;;;2.07;;
43504;SDS011;29098;48.184;16.298;2022-07-06T11:29:04;5.78;;;2.08;;
43504;SDS011;29098;48.184;16.298;2022-07-06T11:31:35;4.35;;;2.00;;
43504;SDS011;29098;48.184;16.298;2022-07-06T11:34:06;4.97;;;2.03;;
43504;SDS011;29098;48.184;16.298;2022-07-06T11:36:33;3.95;;;1.52;;
43504;SDS011;29098;48.184;16.298;2022-07-06T11:38:59;2.65;;;1.42;;
43504;SDS011;29098;48.184;16.298;2022-07-06T11:41:25;3.10;;;1.75;;
43504;SDS011;29098;48.184;16.298;2022-07-06T11:43:50;2.80;;;1.50;;
43504;SDS011;29098;48.184;16.298;2022-07-06T11:48:52;2.83;;;1.60;;
43504;SDS011;29098;48.184;16.298;2022-07-06T11:51:22;3.15;;;1.98;;
43504;SDS011;29098;48.184;16.298;2022-07-06T11:53:53;4.65;;;1.98;;
43504;SDS011;29098;48.184;16.298;2022-07-06T11:56:23;4.18;;;2.20;;
43504;SDS011;29098;48.184;16.298;2022-07-06T11:58:53;3.88;;;2.60;;
43504;SDS011;29098;48.184;16.298;2022-07-06T12:01:20;5.03;;;2.25;;
43504;SDS011;29098;48.184;16.298;2022-07-06T12:03:47;4.38;;;2.22;;
43504;SDS011;29098;48.184;16.298;2022-07-06T12:06:19;5.95;;;2.38;;
43504;SDS011;29098;48.184;16.298;2022-07-06T12:08:47;3.65;;;2.60;;
43504;SDS011;29098;48.184;16.298;2022-07-06T12:11:20;5.03;;;2.60;;
43504;SDS011;29098;48.184;16.298;2022-07-06T12:13:46;3.97;;;2.50;;
43504;SDS011;29098;48.184;16.298;2022-07-06T12:16:12;3.03;;;2.25;;
43504;SDS011;29098;48.184;16.298;2022-07-06T12:18:40;9.02;;;2.92;;
43504;SDS011;29098;48.184;16.298;2022-07-06T12:21:07;6.03;;;2.70;;
43504;SDS011;29098;48.184;16.298;2022-07-06T12:23:45;3.88;;;2.90;;
43504;SDS011;29098;48.184;16.298;2022-07-06T12:26:13;6.07;;;2.40;;
43504;SDS011;29098;48.184;16.298;2022-07-06T12:28:40;4.82;;;2.20;;
43504;SDS011;29098;48.184;16.298;2022-07-06T12:31:06;4.55;;;2.25;;
43504;SDS011;29098;48.184;16.298;2022-07-06T12:33:32;4.95;;;2.40;;
43504;SDS011;29098;48.184;16.298;2022-07-06T12:36:07;6.07;;;2.10;;
43504;SDS011;29098;48.184;16.298;2022-07-06T12:38:43;3.65;;;2.08;;
43504;SDS011;29098;48.184;16.298;2022-07-06T12:41:10;3.83;;;2.38;;
43504;SDS011;29098;48.184;16.298;2022-07-06T12:43:38;3.05;;;1.85;;
43504;SDS011;29098;48.184;16.298;2022-07-06T12:48:57;3.22;;;2.38;;
43504;SDS011;29098;48.184;16.298;2022-07-06T12:51:24;5.50;;;2.28;;
43504;SDS011;29098;48.184;16.298;2022-07-06T12:53:50;3.28;;;2.42;;
43504;SDS011;29098;48.184;16.298;2022-07-06T12:56:16;4.43;;;2.60;;
43504;SDS011;29098;48.184;16.298;2022-07-06T12:58:58;2.90;;;2.00;;
43504;SDS011;29098;48.184;16.298;2022-07-06T13:01:25;4.15;;;2.72;;
43504;SDS011;29098;48.184;16.298;2022-07-06T13:03:54;4.95;;;2.67;;
43504;SDS011;29098;48.184;16.298;2022-07-06T13:06:28;4.70;;;2.67;;
43504;SDS011;29098;48.184;16.298;2022-07-06T13:08:55;3.85;;;2.53;;
43504;SDS011;29098;48.184;16.298;2022-07-06T13:11:21;3.58;;;2.33;;
43504;SDS011;29098;48.184;16.298;2022-07-06T13:13:46;3.20;;;2.33;;
43504;SDS011;29098;48.184;16.298;2022-07-06T13:16:12;3.92;;;2.45;;
43504;SDS011;29098;48.184;16.298;2022-07-06T13:18:37;3.15;;;2.28;;
43504;SDS011;29098;48.184;16.298;2022-07-06T13:21:02;3.35;;;2.40;;
43504;SDS011;29098;48.184;16.298;2022-07-06T13:23:28;4.05;;;1.77;;
43504;SDS011;29098;48.184;16.298;2022-07-06T13:25:53;3.70;;;1.98;;
43504;SDS011;29098;48.184;16.298;2022-07-06T13:28:19;7.93;;;1.73;;
43504;SDS011;29098;48.184;16.298;2022-07-06T13:30:44;4.57;;;1.77;;
43504;SDS011;29098;48.184;16.298;2022-07-06T13:33:09;4.72;;;1.85;;
43504;SDS011;29098;48.184;16.298;2022-07-06T13:35:35;3.47;;;1.77;;
43504;SDS011;29098;48.184;16.298;2022-07-06T13:38:00;2.72;;;1.95;;
43504;SDS011;29098;48.184;16.298;2022-07-06T13:40:26;3.28;;;2.20;;
43504;SDS011;29098;48.184;16.298;2022-07-06T13:42:52;3.53;;;2.10;;
43504;SDS011;29098;48.184;16.298;2022-07-06T13:45:19;4.65;;;2.00;;
43504;SDS011;29098;48.184;16.298;2022-07-06T13:47:45;3.67;;;1.98;;
43504;SDS011;29098;48.184;16.298;2022-07-06T13:50:12;3.72;;;1.63;;
43504;SDS011;29098;48.184;16.298;2022-07-06T13:52:38;2.10;;;1.50;;
43504;SDS011;29098;48.184;16.298;2022-07-06T13:55:04;3.72;;;1.70;;
43504;SDS011;29098;48.184;16.298;2022-07-06T13:57:31;3.33;;;1.90;;
43504;SDS011;29098;48.184;16.298;2022-07-06T13:59:56;4.45;;;2.42;;
43504;SDS011;29098;48.184;16.298;2022-07-06T14:02:22;4.55;;;1.98;;
43504;SDS011;29098;48.184;16.298;2022-07-06T14:04:47;3.13;;;1.80;;
43504;SDS011;29098;48.184;16.298;2022-07-06T14:07:13;4.47;;;1.98;;
43504;SDS011;29098;48.184;16.298;2022-07-06T14:09:38;3.75;;;1.80;;
43504;SDS011;29098;48.184;16.298;2022-07-06T14:12:04;3.30;;;1.85;;
43504;SDS011;29098;48.184;16.298;2022-07-06T14:14:29;4.55;;;1.77;;
43504;SDS011;29098;48.184;16.298;2022-07-06T14:16:55;3.03;;;1.77;;
43504;SDS011;29098;48.184;16.298;2022-07-06T14:19:21;3.35;;;1.77;;
43504;SDS011;29098;48.184;16.298;2022-07-06T14:21:47;5.20;;;1.90;;
43504;SDS011;29098;48.184;16.298;2022-07-06T14:24:13;3.30;;;1.60;;
43504;SDS011;29098;48.184;16.298;2022-07-06T14:26:39;2.75;;;1.88;;
43504;SDS011;29098;48.184;16.298;2022-07-06T14:29:05;3.38;;;2.10;;
43504;SDS011;29098;48.184;16.298;2022-07-06T14:31:30;3.25;;;1.52;;
43504;SDS011;29098;48.184;16.298;2022-07-06T14:33:56;3.90;;;2.35;;
43504;SDS011;29098;48.184;16.298;2022-07-06T14:36:21;2.90;;;2.15;;
43504;SDS011;29098;48.184;16.298;2022-07-06T14:38:47;4.63;;;2.50;;